Time,TemperatureF,DewpointF,PressureIn,WindDirection,WindDirectionDegrees,WindSpeedMPH,WindSpeedGustMPH,Humidity,HourlyPrecipIn,Conditions,Clouds,dailyrainin,SoftwareType,DateUTC
2013-05-29 00:02:00,76.0,73.0,30.01,East,97,9.0,17.0,89,0.05,,,0.65,,2013-05-29 04:02:00,
2013-05-29 00:13:00,76.0,73.0,30.02,South,180,9.0,16.0,90,0.05,,,0.65,,2013-05-29 04:13:00,
2013-05-29 00:23:00,76.0,73.0,30.02,South,180,9.0,16.0,90,0.05,,,0.65,,2013-05-29 04:23:00,
2013-05-29 00:33:00,76.0,73.0,30.01,SE,134,8.0,15.0,90,0.03,,,0.65,,2013-05-29 04:33:00,
2013-05-29 00:42:00,76.0,73.0,30.01,SE,134,8.0,15.0,90,0.03,,,0.65,,2013-05-29 04:42:00,
2013-05-29 00:53:00,77.0,74.0,30.01,SE,142,4.0,7.0,90,0.00,,,0.65,,2013-05-29 04:53:00,
2013-05-29 01:02:00,77.0,74.0,30.01,SSE,153,4.0,8.0,90,0.00,,,0.65,,2013-05-29 05:02:00,
2013-05-29 01:12:00,77.0,74.0,30.01,SSE,153,4.0,8.0,90,0.00,,,0.65,,2013-05-29 05:12:00,
2013-05-29 01:22:00,77.0,74.0,30.01,ESE,102,1.0,6.0,90,0.00,,,0.65,,2013-05-29 05:22:00,
2013-05-29 01:32:00,77.0,74.0,30.00,ESE,103,6.0,11.0,90,0.00,,,0.65,,2013-05-29 05:32:00,
2013-05-29 01:42:00,77.0,74.0,30.00,ESE,103,6.0,11.0,90,0.00,,,0.65,,2013-05-29 05:42:00,
2013-05-29 01:52:00,78.0,75.0,30.00,East,79,6.0,10.0,91,0.00,,,0.65,,2013-05-29 05:52:00,
2013-05-29 02:02:00,78.0,75.0,29.99,East,84,3.0,8.0,91,0.00,,,0.65,,2013-05-29 06:02:00,
2013-05-29 02:12:00,78.0,75.0,29.99,East,84,3.0,8.0,91,0.00,,,0.65,,2013-05-29 06:12:00,
2013-05-29 02:21:00,78.0,75.0,29.99,East,98,4.0,9.0,90,0.00,,,0.65,,2013-05-29 06:21:00,
2013-05-29 02:32:00,78.0,75.0,29.99,East,94,6.0,9.0,90,0.00,,,0.65,,2013-05-29 06:32:00,
2013-05-29 02:42:00,78.0,75.0,29.99,East,94,6.0,9.0,90,0.00,,,0.65,,2013-05-29 06:42:00,
2013-05-29 02:52:00,78.0,74.0,29.98,East,101,7.0,13.0,89,0.00,,,0.65,,2013-05-29 06:52:00,
2013-05-29 03:01:00,78.0,74.0,29.98,East,86,7.0,12.0,89,0.00,,,0.65,,2013-05-29 07:01:00,
2013-05-29 03:11:00,78.0,74.0,29.98,East,86,7.0,12.0,89,0.00,,,0.65,,2013-05-29 07:11:00,
2013-05-29 03:21:00,78.0,74.0,29.98,East,85,8.0,15.0,87,0.00,,,0.65,,2013-05-29 07:21:00,
2013-05-29 03:34:00,78.0,74.0,29.98,ESE,103,8.0,14.0,87,0.00,,,0.65,,2013-05-29 07:34:00,
2013-05-29 03:42:00,78.0,74.0,29.98,ESE,103,8.0,14.0,87,0.00,,,0.65,,2013-05-29 07:42:00,
2013-05-29 03:52:00,78.0,73.0,29.96,ENE,77,6.0,14.0,86,0.00,,,0.65,,2013-05-29 07:52:00,
2013-05-29 04:02:00,78.0,73.0,29.96,ESE,106,5.0,11.0,86,0.00,,,0.65,,2013-05-29 08:02:00,
2013-05-29 04:11:00,78.0,73.0,29.96,ESE,106,5.0,11.0,86,0.00,,,0.65,,2013-05-29 08:11:00,
2013-05-29 04:22:00,78.0,73.0,29.96,East,96,5.0,10.0,86,0.00,,,0.65,,2013-05-29 08:22:00,
2013-05-29 04:32:00,78.0,73.0,29.96,East,96,5.0,10.0,86,0.00,,,0.65,,2013-05-29 08:32:00,
2013-05-29 04:42:00,78.0,73.0,29.96,East,96,5.0,10.0,86,0.00,,,0.65,,2013-05-29 08:42:00,
2013-05-29 04:52:00,78.0,74.0,29.96,ESE,107,6.0,12.0,88,0.00,,,0.65,,2013-05-29 08:52:00,
2013-05-29 05:01:00,78.0,74.0,29.96,ENE,69,6.0,12.0,88,0.00,,,0.65,,2013-05-29 09:01:00,
2013-05-29 05:11:00,78.0,74.0,29.96,ENE,69,6.0,12.0,88,0.00,,,0.65,,2013-05-29 09:11:00,
2013-05-29 05:21:00,77.0,74.0,29.96,SSE,153,14.0,21.0,89,0.00,,,0.65,,2013-05-29 09:21:00,
2013-05-29 05:33:00,76.0,73.0,29.96,SSE,148,11.0,20.0,90,0.01,,,0.66,,2013-05-29 09:33:00,
2013-05-29 05:42:00,76.0,73.0,29.96,SSE,148,11.0,20.0,90,0.01,,,0.66,,2013-05-29 09:42:00,
2013-05-29 05:52:00,76.0,73.0,29.97,SE,136,12.0,16.0,91,0.01,,,0.66,,2013-05-29 09:52:00,
2013-05-29 06:03:00,76.0,73.0,29.96,SE,129,10.0,16.0,91,0.01,,,0.66,,2013-05-29 10:03:00,
2013-05-29 06:12:00,76.0,73.0,29.96,SE,129,10.0,16.0,91,0.01,,,0.66,,2013-05-29 10:12:00,
2013-05-29 06:22:00,76.0,73.0,29.96,ESE,121,9.0,16.0,90,0.01,,,0.66,,2013-05-29 10:22:00,
2013-05-29 06:33:00,76.0,73.0,29.96,SE,134,8.0,15.0,90,0.00,,,0.66,,2013-05-29 10:33:00,
2013-05-29 06:42:00,76.0,73.0,29.96,SE,134,8.0,15.0,90,0.00,,,0.66,,2013-05-29 10:42:00,
2013-05-29 06:53:00,77.0,74.0,29.96,ESE,103,6.0,12.0,89,0.00,,,0.66,,2013-05-29 10:53:00,
2013-05-29 07:02:00,77.0,74.0,29.97,SE,134,4.0,10.0,89,0.00,,,0.66,,2013-05-29 11:02:00,
2013-05-29 07:12:00,77.0,74.0,29.97,SE,134,4.0,10.0,89,0.00,,,0.66,,2013-05-29 11:12:00,
2013-05-29 07:22:00,77.0,74.0,29.97,East,86,9.0,15.0,89,0.00,,,0.66,,2013-05-29 11:22:00,
2013-05-29 07:32:00,76.0,73.0,29.97,NE,55,6.0,14.0,89,0.00,,,0.66,,2013-05-29 11:32:00,
2013-05-29 07:42:00,76.0,73.0,29.97,NE,55,6.0,14.0,89,0.00,,,0.66,,2013-05-29 11:42:00,
2013-05-29 07:52:00,76.0,73.0,29.98,ENE,75,6.0,9.0,90,0.01,,,0.67,,2013-05-29 11:52:00,
2013-05-29 08:01:00,76.0,73.0,29.98,NE,44,6.0,11.0,90,0.02,,,0.68,,2013-05-29 12:01:00,
2013-05-29 08:11:00,76.0,73.0,29.98,NE,44,6.0,11.0,90,0.02,,,0.68,,2013-05-29 12:11:00,
2013-05-29 08:22:00,75.0,73.0,29.98,ESE,105,5.0,10.0,92,0.05,,,0.71,,2013-05-29 12:22:00,
2013-05-29 08:32:00,75.0,73.0,29.98,ENE,62,7.0,12.0,92,0.05,,,0.71,,2013-05-29 12:32:00,
2013-05-29 08:42:00,75.0,73.0,29.98,ENE,62,7.0,12.0,92,0.05,,,0.71,,2013-05-29 12:42:00,
2013-05-29 08:52:00,75.0,73.0,30.00,East,79,4.0,10.0,93,0.04,,,0.71,,2013-05-29 12:52:00,
2013-05-29 09:02:00,75.0,73.0,29.99,ENE,75,4.0,8.0,93,0.03,,,0.71,,2013-05-29 13:02:00,
2013-05-29 09:11:00,75.0,73.0,29.99,ENE,75,4.0,8.0,93,0.03,,,0.71,,2013-05-29 13:11:00,
2013-05-29 09:22:00,76.0,74.0,29.99,NE,52,3.0,6.0,94,0.00,,,0.71,,2013-05-29 13:22:00,
2013-05-29 09:32:00,76.0,74.0,29.99,NNE,32,6.0,8.0,94,0.00,,,0.71,,2013-05-29 13:32:00,
2013-05-29 09:42:00,76.0,74.0,29.99,NNE,32,6.0,8.0,94,0.00,,,0.71,,2013-05-29 13:42:00,
2013-05-29 09:53:00,76.0,74.0,30.00,NE,50,7.0,10.0,94,0.00,,,0.71,,2013-05-29 13:53:00,
2013-05-29 10:02:00,76.0,74.0,30.00,NE,34,8.0,10.0,94,0.00,,,0.71,,2013-05-29 14:02:00,
2013-05-29 10:11:00,76.0,74.0,30.00,NE,34,8.0,10.0,94,0.00,,,0.71,,2013-05-29 14:11:00,
2013-05-29 10:21:00,77.0,75.0,30.00,NNE,28,7.0,10.0,94,0.00,,,0.71,,2013-05-29 14:21:00,
2013-05-29 10:32:00,78.0,76.0,30.00,NE,39,6.0,9.0,94,0.00,,,0.71,,2013-05-29 14:32:00,
2013-05-29 10:42:00,78.0,76.0,30.00,NE,39,6.0,9.0,94,0.00,,,0.71,,2013-05-29 14:42:00,
2013-05-29 10:52:00,77.0,75.0,30.00,NE,49,6.0,20.0,94,0.27,,,0.98,,2013-05-29 14:52:00,
2013-05-29 11:01:00,77.0,75.0,30.00,NE,38,7.0,11.0,94,0.29,,,1.00,,2013-05-29 15:01:00,
2013-05-29 11:11:00,77.0,75.0,30.01,ENE,61,7.0,13.0,94,0.32,,,0.95,,2013-05-29 15:11:00,
2013-05-29 11:21:00,77.0,75.0,30.01,ENE,61,7.0,13.0,94,0.32,,,0.95,,2013-05-29 15:21:00,
2013-05-29 11:33:00,77.0,75.0,30.01,ENE,71,8.0,12.0,95,0.33,,,0.96,,2013-05-29 15:33:00,
2013-05-29 11:42:00,77.0,75.0,30.01,ENE,71,8.0,12.0,95,0.33,,,0.96,,2013-05-29 15:42:00,
2013-05-29 11:53:00,75.0,73.0,30.03,ENE,67,8.0,16.0,94,0.34,,,1.24,,2013-05-29 15:53:00,
2013-05-29 12:03:00,75.0,73.0,30.03,East,87,6.0,12.0,94,0.39,,,1.31,,2013-05-29 16:03:00,
2013-05-29 12:12:00,75.0,73.0,30.03,East,87,6.0,12.0,94,0.39,,,1.31,,2013-05-29 16:12:00,
2013-05-29 12:22:00,75.0,73.0,30.02,ENE,61,4.0,7.0,95,0.36,,,1.19,,2013-05-29 16:22:00,
2013-05-29 12:32:00,75.0,73.0,30.03,ENE,59,6.0,9.0,95,0.39,,,1.22,,2013-05-29 16:32:00,
2013-05-29 12:42:00,75.0,73.0,30.03,ENE,59,6.0,9.0,95,0.39,,,1.22,,2013-05-29 16:42:00,
2013-05-29 12:52:00,74.0,72.0,30.02,ESE,110,7.0,14.0,95,0.12,,,1.23,,2013-05-29 16:52:00,
2013-05-29 13:02:00,74.0,72.0,30.02,East,87,9.0,18.0,95,0.06,,,1.24,,2013-05-29 17:02:00,
2013-05-29 13:12:00,74.0,72.0,30.02,East,87,9.0,18.0,95,0.06,,,1.24,,2013-05-29 17:12:00,
2013-05-29 13:22:00,74.0,72.0,30.01,East,94,11.0,18.0,95,0.05,,,1.24,,2013-05-29 17:22:00,
2013-05-29 13:32:00,74.0,73.0,30.01,East,100,9.0,14.0,96,0.04,,,0.95,,2013-05-29 17:32:00,
2013-05-29 13:42:00,74.0,73.0,30.01,East,100,9.0,14.0,96,0.04,,,0.95,,2013-05-29 17:42:00,
2013-05-29 13:52:00,73.0,71.0,30.01,ENE,76,10.0,19.0,95,0.19,,,1.11,,2013-05-29 17:52:00,
2013-05-29 14:01:00,73.0,71.0,30.01,East,100,5.0,11.0,95,0.32,,,1.25,,2013-05-29 18:01:00,
2013-05-29 14:13:00,73.0,72.0,30.01,East,94,6.0,13.0,96,0.38,,,1.30,,2013-05-29 18:13:00,
2013-05-29 14:22:00,73.0,72.0,30.01,East,94,6.0,13.0,96,0.38,,,1.30,,2013-05-29 18:22:00,
2013-05-29 14:32:00,73.0,72.0,30.00,SE,131,9.0,15.0,96,0.40,,,1.33,,2013-05-29 18:32:00,
2013-05-29 14:42:00,73.0,72.0,30.00,SE,131,9.0,15.0,96,0.40,,,1.33,,2013-05-29 18:42:00,
2013-05-29 14:52:00,74.0,73.0,29.99,South,173,5.0,9.0,96,0.25,,,1.35,,2013-05-29 18:52:00,
2013-05-29 15:02:00,74.0,73.0,29.99,SSE,163,1.0,8.0,96,0.13,,,1.36,,2013-05-29 19:02:00,
2013-05-29 15:11:00,74.0,73.0,29.97,South,189,7.0,11.0,96,0.09,,,1.35,,2013-05-29 19:11:00,
2013-05-29 15:22:00,74.0,73.0,29.97,South,189,7.0,11.0,96,0.09,,,1.35,,2013-05-29 19:22:00,
2013-05-29 15:32:00,75.0,74.0,29.97,SSE,163,7.0,11.0,96,0.10,,,1.38,,2013-05-29 19:32:00,
2013-05-29 15:44:00,75.0,74.0,29.98,SE,138,9.0,14.0,96,0.14,,,1.44,,2013-05-29 19:44:00,
2013-05-29 15:53:00,75.0,74.0,29.98,SE,138,9.0,14.0,96,0.14,,,1.44,,2013-05-29 19:53:00,
2013-05-29 16:03:00,75.0,74.0,29.99,SE,145,8.0,14.0,96,0.14,,,1.45,,2013-05-29 20:03:00,
2013-05-29 16:11:00,75.0,74.0,29.99,SE,145,8.0,14.0,96,0.14,,,1.45,,2013-05-29 20:11:00,
2013-05-29 16:23:00,75.0,74.0,29.98,ESE,119,6.0,9.0,96,0.12,,,1.47,,2013-05-29 20:23:00,
2013-05-29 16:33:00,74.0,73.0,29.97,ESE,119,5.0,9.0,96,0.09,,,1.47,,2013-05-29 20:33:00,
2013-05-29 16:42:00,74.0,73.0,29.97,ESE,119,5.0,9.0,96,0.09,,,1.47,,2013-05-29 20:42:00,
2013-05-29 16:53:00,74.0,73.0,29.96,ESE,107,7.0,12.0,96,0.04,,,1.48,,2013-05-29 20:53:00,
2013-05-29 17:02:00,74.0,73.0,29.96,ESE,109,6.0,11.0,96,0.03,,,1.48,,2013-05-29 21:02:00,
2013-05-29 17:12:00,74.0,73.0,29.96,ESE,109,6.0,11.0,96,0.03,,,1.48,,2013-05-29 21:12:00,
2013-05-29 17:22:00,74.0,73.0,29.95,East,87,5.0,8.0,96,0.02,,,1.49,,2013-05-29 21:22:00,
2013-05-29 17:33:00,74.0,73.0,29.94,ENE,72,5.0,10.0,96,0.02,,,1.49,,2013-05-29 21:33:00,
2013-05-29 17:43:00,74.0,73.0,29.94,ENE,72,5.0,10.0,96,0.02,,,1.49,,2013-05-29 21:43:00,
2013-05-29 17:53:00,75.0,74.0,29.95,East,93,6.0,9.0,96,0.01,,,1.49,,2013-05-29 21:53:00,
2013-05-29 18:03:00,75.0,74.0,29.95,ESE,104,3.0,9.0,96,0.01,,,1.49,,2013-05-29 22:03:00,
2013-05-29 18:12:00,75.0,74.0,29.95,ESE,104,3.0,9.0,96,0.01,,,1.49,,2013-05-29 22:12:00,
2013-05-29 18:23:00,75.0,74.0,29.95,NE,51,5.0,9.0,96,0.00,,,1.49,,2013-05-29 22:23:00,
2013-05-29 18:33:00,75.0,74.0,29.95,NE,50,6.0,10.0,96,0.00,,,1.49,,2013-05-29 22:33:00,
2013-05-29 18:42:00,75.0,74.0,29.96,NNE,27,7.0,13.0,96,0.00,,,1.49,,2013-05-29 22:42:00,
2013-05-29 18:53:00,75.0,74.0,29.96,NNE,27,7.0,13.0,96,0.00,,,1.49,,2013-05-29 22:53:00,
2013-05-29 19:02:00,75.0,73.0,29.95,NNE,30,9.0,15.0,95,0.00,,,1.49,,2013-05-29 23:02:00,
2013-05-29 19:12:00,75.0,73.0,29.95,NNE,30,9.0,15.0,95,0.00,,,1.49,,2013-05-29 23:12:00,
2013-05-29 19:22:00,76.0,74.0,29.96,ENE,65,9.0,17.0,95,0.00,,,1.49,,2013-05-29 23:22:00,
2013-05-29 19:33:00,76.0,74.0,29.96,ENE,65,9.0,17.0,95,0.00,,,1.49,,2013-05-29 23:33:00,
2013-05-29 19:42:00,76.0,74.0,29.96,ENE,77,7.0,13.0,95,0.00,,,1.49,,2013-05-29 23:42:00,
2013-05-29 19:53:00,76.0,74.0,29.96,ENE,77,7.0,13.0,95,0.00,,,1.49,,2013-05-29 23:53:00,
2013-05-29 20:01:00,76.0,74.0,29.96,East,90,6.0,10.0,95,0.00,,,1.49,,2013-05-30 00:01:00,
2013-05-29 20:12:00,76.0,74.0,29.96,East,90,6.0,10.0,95,0.00,,,1.49,,2013-05-30 00:12:00,
2013-05-29 20:22:00,76.0,74.0,29.96,East,91,6.0,10.0,94,0.00,,,1.49,,2013-05-30 00:22:00,
2013-05-29 20:32:00,76.0,74.0,29.97,East,94,4.0,9.0,94,0.00,,,1.49,,2013-05-30 00:32:00,
2013-05-29 20:42:00,76.0,74.0,29.97,East,94,4.0,9.0,94,0.00,,,1.49,,2013-05-30 00:42:00,
2013-05-29 20:52:00,75.0,73.0,29.97,ENE,75,5.0,7.0,94,0.00,,,1.49,,2013-05-30 00:52:00,
2013-05-29 21:01:00,75.0,73.0,29.96,ENE,73,3.0,7.0,94,0.00,,,1.49,,2013-05-30 01:01:00,
2013-05-29 21:11:00,75.0,73.0,29.96,ENE,73,3.0,7.0,94,0.00,,,1.49,,2013-05-30 01:11:00,
2013-05-29 21:22:00,76.0,74.0,29.97,East,91,3.0,6.0,95,0.00,,,1.49,,2013-05-30 01:22:00,
2013-05-29 21:32:00,76.0,74.0,29.97,East,91,3.0,6.0,95,0.00,,,1.49,,2013-05-30 01:32:00,
2013-05-29 21:42:00,76.0,74.0,29.97,East,91,3.0,6.0,95,0.00,,,1.49,,2013-05-30 01:42:00,
2013-05-29 21:52:00,76.0,74.0,29.97,ENE,68,4.0,9.0,95,0.00,,,1.49,,2013-05-30 01:52:00,
2013-05-29 22:01:00,76.0,74.0,29.97,ENE,57,5.0,9.0,95,0.00,,,1.49,,2013-05-30 02:01:00,
2013-05-29 22:11:00,76.0,74.0,29.97,ENE,57,5.0,9.0,95,0.00,,,1.49,,2013-05-30 02:11:00,
2013-05-29 22:21:00,76.0,74.0,29.98,ENE,71,5.0,8.0,95,0.00,,,1.49,,2013-05-30 02:21:00,
2013-05-29 22:32:00,76.0,74.0,29.98,ENE,65,5.0,11.0,95,0.00,,,1.48,,2013-05-30 02:32:00,
2013-05-29 22:42:00,76.0,74.0,29.98,ENE,65,5.0,11.0,95,0.00,,,1.48,,2013-05-30 02:42:00,
2013-05-29 22:52:00,76.0,74.0,29.98,ENE,65,5.0,11.0,95,0.00,,,1.48,,2013-05-30 02:52:00,
2013-05-29 23:02:00,76.0,74.0,29.98,ENE,71,4.0,8.0,95,0.00,,,1.48,,2013-05-30 03:02:00,
2013-05-29 23:11:00,76.0,74.0,29.98,ENE,71,5.0,7.0,95,0.00,,,1.48,,2013-05-30 03:11:00,
2013-05-29 23:21:00,76.0,74.0,29.98,ENE,71,5.0,7.0,95,0.00,,,1.48,,2013-05-30 03:21:00,
2013-05-29 23:33:00,76.0,74.0,29.98,ENE,73,4.0,7.0,95,0.00,,,1.48,,2013-05-30 03:33:00,
2013-05-29 23:43:00,76.0,74.0,29.98,ENE,73,4.0,7.0,95,0.00,,,1.48,,2013-05-30 03:43:00,
2013-05-29 23:53:00,76.0,74.0,29.98,East,84,5.0,10.0,95,0.00,,,1.48,,2013-05-30 03:53:00,